Aérodrome :
LOGIN :

S'inscrire | Disclaimer

   EN    FR    IT 

 










Légende :    VFR   VFR Marginal   IFR   IFR Intensif   IFR Très Intensif
Visi : 
Plafond : 
>= 8 km
>= 3000ft
5 à 8 km
1000 à 3000 ft
1500m à 5 km
500 à 1000 ft
800 à 1500m
200 à 500 ft
< 800m
< 200 ft
Symboles :   Orages  Brouillard  Fortes neiges  Fortes précipitations  Vent > 20 kt
SIGMETs :   Divers  Orages  Givrage  Turbulence  Onde Orograph.  Cendres Volcan.






- Altitude de l'aérodrome : 794 ft


LKCV - Čáslav Air Base

DERNIER METAR :
  • 210100Z 25003KT 4000 -RA BR SCT029 OVC046 07/06 Q1012 NOSIG RMK GRN GRN

METARs EXPIRÉS :
  • 210016Z 28002KT 4000 -RA BR NSC 07/06 Q1012 RMK GRN
  • 202300Z 27003KT 5000 -RA BR NSC 07/06 Q1012 NOSIG RMK WHT WHT
  • 202200Z 35001KT 5000 BR NSC 07/06 Q1013 NOSIG RMK WHT WHT

TAF COR TAF LKCV
Valide du 21 à 00h jusqu'au 22 à 00h UTC


202300Z 2100/2200 VRB02KT 7000 OVC020
TEMPO 2100/2116 2000 -RA BKN012
PROB30
TEMPO 2102/2110 0600 DZ FG VV002
BECMG 2115/2118 13008KT 9999 SCT025



MET'MAP, la Météo Aéronautique d'un coup d'oeil ! - Copyright ORBIFLY Décembre 2007 - Disclaimer

ORBIFLY MET'MAP TEAM :

Programmation & Développement : Alexandra Zaïnal
Conception & Développement : Baudouin d'Aumeries
Co-Programmation & Développement : Marc-Olivier Méhu
Soutien technique & logistique : Manuel Goepfert

Contact : metmap@orbifly.com




SOURCES & CREDITS :

   NOAA